Cullman, Alabama
Current Conditions -  °F | °C
As of 11:15 AM on Wednesday 26 Nov 2014 (Local Time) from KCMD Reporting Station
Clear Clear  
Wind Chill: 49°   Ceiling: Unl
Heat Index: 49°   Visibility: 10mi
Dew Point: 23°   Wind: 0mph
Humidity: 36%   Direction: NA
Pressure: 30.16"   Gusts: NA
Location:  34.17°N, 86.84°W
Report Text: KCMD 261715Z AUTO 00000KT 10SM CLR 09/M05 A3016 RMK AO2 T00931052
Loading
Personal Weather Stations






























Interactive Weather Map New forecast layout! Learn more

10-Day Weather Forecast

Advertisements
Track Severe Weather on mobile